createdAt,value
2018-01-23T00:01:59.701Z,18.53
2018-01-23T00:04:26.426Z,18.03
2018-01-23T00:06:53.142Z,20.93
2018-01-23T00:11:53.181Z,17.77
2018-01-23T00:14:19.925Z,22.13
2018-01-23T00:16:46.679Z,19.57
2018-01-23T00:19:13.401Z,19.37
2018-01-23T00:21:40.135Z,17.67
2018-01-23T00:24:06.844Z,18.23
2018-01-23T00:26:33.554Z,19.83
2018-01-23T00:29:00.305Z,17.43
2018-01-23T00:31:27.029Z,18.07
2018-01-23T00:33:53.740Z,18.70
2018-01-23T00:36:20.486Z,17.10
2018-01-23T00:38:47.199Z,21.23
2018-01-23T00:41:13.929Z,18.48
2018-01-23T00:43:40.654Z,20.43
2018-01-23T00:46:07.369Z,21.70
2018-01-23T00:48:34.079Z,17.07
2018-01-23T00:51:00.825Z,17.50
2018-01-23T00:53:27.529Z,19.80
2018-01-23T00:55:54.245Z,20.07
2018-01-23T00:58:20.966Z,17.30
2018-01-23T01:00:47.702Z,19.23
2018-01-23T01:03:14.420Z,19.93
2018-01-23T01:05:41.146Z,19.77
2018-01-23T01:08:07.858Z,18.87
2018-01-23T01:10:34.578Z,17.37
2018-01-23T01:13:01.314Z,25.40
2018-01-23T01:15:28.045Z,17.77
2018-01-23T01:17:54.758Z,18.00
2018-01-23T01:20:21.491Z,25.63
2018-01-23T01:22:48.217Z,19.65
2018-01-23T01:25:14.929Z,17.67
2018-01-23T01:27:41.674Z,17.23
2018-01-23T01:30:08.388Z,19.20
2018-01-23T01:32:35.121Z,22.77
2018-01-23T01:35:01.865Z,19.90
2018-01-23T01:37:28.583Z,19.67
2018-01-23T01:39:55.304Z,17.80
2018-01-23T01:42:22.052Z,16.80
2018-01-23T01:44:48.762Z,18.70
2018-01-23T01:47:15.470Z,19.23
2018-01-23T01:49:42.222Z,19.00
2018-01-23T01:52:08.937Z,18.53
2018-01-23T01:54:35.702Z,23.73
2018-01-23T01:57:02.430Z,19.00
2018-01-23T01:59:29.169Z,21.90
2018-01-23T02:01:55.882Z,18.30
2018-01-23T02:04:22.610Z,21.13
2018-01-23T02:06:49.345Z,17.90
2018-01-23T02:09:16.052Z,19.10
2018-01-23T02:11:42.782Z,21.63
2018-01-23T02:14:09.518Z,17.47
2018-01-23T02:16:36.230Z,24.30
2018-01-23T02:19:03.006Z,21.87
2018-01-23T02:21:29.739Z,20.70
2018-01-23T02:23:56.490Z,21.13
2018-01-23T02:26:23.224Z,20.30
2018-01-23T02:28:49.936Z,20.60
2018-01-23T02:31:16.653Z,20.67
2018-01-23T02:33:43.381Z,22.10
2018-01-23T02:36:10.093Z,22.93
2018-01-23T02:38:36.829Z,20.13
2018-01-23T02:41:03.562Z,20.30
2018-01-23T02:43:30.277Z,20.57
2018-01-23T02:45:57.001Z,23.87
2018-01-23T02:48:23.718Z,22.43
2018-01-23T02:50:50.432Z,23.47
2018-01-23T02:53:17.141Z,25.10
2018-01-23T02:55:43.874Z,27.87
2018-01-23T02:58:10.591Z,25.50
2018-01-23T03:00:37.299Z,27.40
2018-01-23T03:03:04.062Z,29.63
2018-01-23T03:05:30.780Z,26.77
2018-01-23T03:07:57.513Z,25.43
2018-01-23T03:10:24.236Z,27.17
2018-01-23T03:12:50.969Z,25.23
2018-01-23T03:15:17.701Z,23.63
2018-01-23T03:17:44.437Z,21.50
2018-01-23T03:20:11.194Z,21.30
2018-01-23T03:22:37.913Z,23.37
2018-01-23T03:25:04.652Z,22.73
2018-01-23T03:27:31.372Z,28.23
2018-01-23T03:29:58.084Z,24.70
2018-01-23T03:32:24.821Z,24.33
2018-01-23T03:34:51.554Z,21.43
2018-01-23T03:37:18.272Z,24.77
2018-01-23T03:39:45.241Z,23.63
2018-01-23T03:42:11.979Z,22.40
2018-01-23T03:44:38.703Z,23.90
2018-01-23T03:47:05.471Z,24.25
2018-01-23T03:49:32.183Z,24.90
2018-01-23T03:51:58.906Z,23.70
2018-01-23T03:54:25.646Z,24.50
2018-01-23T03:56:52.402Z,25.60
2018-01-23T03:59:19.119Z,25.50
2018-01-23T04:01:45.850Z,22.20
2018-01-23T04:04:12.580Z,25.17
2018-01-23T04:06:39.290Z,20.90
2018-01-23T04:09:06.033Z,23.95
2018-01-23T04:11:32.762Z,22.20
2018-01-23T04:13:59.513Z,26.47
2018-01-23T04:16:26.242Z,20.57
2018-01-23T04:18:52.979Z,24.33
2018-01-23T04:21:19.733Z,24.10
2018-01-23T04:23:46.488Z,21.23
2018-01-23T04:26:13.220Z,25.30
2018-01-23T04:28:39.955Z,24.73
2018-01-23T04:31:06.700Z,20.00
2018-01-23T04:33:33.426Z,19.83
2018-01-23T04:36:00.143Z,21.03
2018-01-23T04:38:26.890Z,26.40
2018-01-23T04:40:53.610Z,28.98
2018-01-23T04:43:20.328Z,20.52
2018-01-23T04:45:47.053Z,21.77
2018-01-23T04:48:13.775Z,21.62
2018-01-23T04:50:40.498Z,21.40
2018-01-23T04:53:07.243Z,22.10
2018-01-23T04:55:33.969Z,20.65
2018-01-23T04:58:00.711Z,18.77
2018-01-23T05:00:27.449Z,19.55
2018-01-23T05:02:54.169Z,22.37
2018-01-23T05:05:20.902Z,24.92
2018-01-23T05:07:47.640Z,21.40
2018-01-23T05:10:14.374Z,21.75
2018-01-23T05:12:41.084Z,26.30
2018-01-23T05:15:07.820Z,22.00
2018-01-23T05:17:34.556Z,22.20
2018-01-23T05:20:01.278Z,22.42
2018-01-23T05:22:28.023Z,22.65
2018-01-23T05:24:54.766Z,20.60
2018-01-23T05:27:21.492Z,23.30
2018-01-23T05:29:48.233Z,22.08
2018-01-23T05:32:14.950Z,25.27
2018-01-23T05:34:41.696Z,21.10
2018-01-23T05:37:08.430Z,21.35
2018-01-23T05:39:35.140Z,21.08
2018-01-23T05:42:01.876Z,23.30
2018-01-23T05:44:28.588Z,22.35
2018-01-23T05:46:55.358Z,21.60
2018-01-23T05:49:22.086Z,24.30
2018-01-23T05:51:48.854Z,26.42
2018-01-23T05:54:15.606Z,23.73
2018-01-23T05:56:42.342Z,21.55
2018-01-23T05:59:09.095Z,23.70
2018-01-23T06:01:35.847Z,28.20
2018-01-23T06:04:02.588Z,21.52
2018-01-23T06:06:29.321Z,22.45
2018-01-23T06:08:56.033Z,26.65
2018-01-23T06:11:22.762Z,25.55
2018-01-23T06:13:49.502Z,26.60
2018-01-23T06:16:16.236Z,24.35
2018-01-23T06:18:42.974Z,22.65
2018-01-23T06:21:09.730Z,24.77
2018-01-23T06:23:36.463Z,26.02
2018-01-23T06:26:03.186Z,21.00
2018-01-23T06:28:29.957Z,23.45
2018-01-23T06:30:56.673Z,20.35
2018-01-23T06:33:23.421Z,26.20
2018-01-23T06:35:50.168Z,21.25
2018-01-23T06:38:16.914Z,30.37
2018-01-23T06:40:43.654Z,22.33
2018-01-23T06:43:10.433Z,23.65
2018-01-23T06:45:37.150Z,21.90
2018-01-23T06:48:03.890Z,20.55
2018-01-23T06:50:30.625Z,27.67
2018-01-23T06:52:57.363Z,28.33
2018-01-23T06:55:24.099Z,24.42
2018-01-23T06:57:50.871Z,22.33
2018-01-23T07:00:17.592Z,28.00
2018-01-23T07:02:44.352Z,24.02
2018-01-23T07:05:11.107Z,28.33
2018-01-23T07:07:37.854Z,30.40
2018-01-23T07:10:04.580Z,26.67
2018-01-23T07:12:35.185Z,27.95
2018-01-23T07:15:01.935Z,26.90
2018-01-23T07:17:28.658Z,24.17
2018-01-23T07:19:55.406Z,32.42
2018-01-23T07:22:22.141Z,28.73
2018-01-23T07:24:48.862Z,33.38
2018-01-23T07:27:15.619Z,24.63
2018-01-23T07:29:42.340Z,30.23
2018-01-23T07:32:28.163Z,31.35
2018-01-23T07:34:54.992Z,34.80
2018-01-23T07:37:22.014Z,28.47
2018-01-23T07:39:48.720Z,37.10
2018-01-23T07:42:15.436Z,35.80
2018-01-23T07:44:42.189Z,33.45
2018-01-23T07:47:08.900Z,34.97
2018-01-23T07:49:35.617Z,31.20
2018-01-23T07:52:02.379Z,29.20
2018-01-23T07:54:29.094Z,32.20
2018-01-23T07:56:55.864Z,29.07
2018-01-23T07:59:22.608Z,29.40
2018-01-23T08:01:49.348Z,32.87
2018-01-23T08:04:16.084Z,32.50
2018-01-23T08:06:42.828Z,27.90
2018-01-23T08:09:09.571Z,32.63
2018-01-23T08:11:36.309Z,27.30
2018-01-23T08:14:03.047Z,30.63
2018-01-23T08:16:29.756Z,26.97
2018-01-23T08:18:56.493Z,29.57
2018-01-23T08:21:23.222Z,32.40
2018-01-23T08:23:49.987Z,32.53
2018-01-23T08:26:16.719Z,32.73
2018-01-23T08:28:43.466Z,30.53
2018-01-23T08:31:10.204Z,31.30
2018-01-23T08:33:36.942Z,28.33
2018-01-23T08:36:03.679Z,29.60
2018-01-23T08:38:30.420Z,37.30
2018-01-23T08:40:57.136Z,29.00
2018-01-23T08:43:23.870Z,33.57
2018-01-23T08:45:50.589Z,32.70
2018-01-23T08:48:17.314Z,27.13
2018-01-23T08:50:44.076Z,28.20
2018-01-23T08:53:10.800Z,37.33
2018-01-23T08:55:37.638Z,29.07
2018-01-23T08:58:04.377Z,28.53
2018-01-23T09:00:31.093Z,27.77
2018-01-23T09:02:57.807Z,27.77
2018-01-23T09:05:24.545Z,28.70
2018-01-23T09:07:51.277Z,31.83
2018-01-23T09:10:18.013Z,29.37
2018-01-23T09:12:44.854Z,28.87
2018-01-23T09:15:11.602Z,27.73
2018-01-23T09:17:38.335Z,28.10
2018-01-23T09:20:05.080Z,31.33
2018-01-23T09:22:31.796Z,33.30
2018-01-23T09:24:58.564Z,29.50
2018-01-23T09:27:25.305Z,26.93
2018-01-23T09:29:52.014Z,24.03
2018-01-23T09:32:18.735Z,33.80
2018-01-23T09:34:45.493Z,29.93
2018-01-23T09:37:12.215Z,30.77
2018-01-23T09:39:38.948Z,27.23
2018-01-23T09:42:05.702Z,26.70
2018-01-23T09:44:32.447Z,29.50
2018-01-23T09:46:59.180Z,28.70
2018-01-23T09:49:25.904Z,32.80
2018-01-23T09:51:52.616Z,29.47
2018-01-23T09:54:19.325Z,28.17
2018-01-23T09:56:46.092Z,23.73
2018-01-23T09:59:12.802Z,23.77
2018-01-23T10:01:39.536Z,29.93
2018-01-23T10:04:06.336Z,28.83
2018-01-23T10:06:33.050Z,26.87
2018-01-23T10:08:59.843Z,29.97
2018-01-23T10:11:26.590Z,25.87
2018-01-23T10:14:10.939Z,27.30
2018-01-23T10:16:37.678Z,27.57
2018-01-23T10:19:04.469Z,29.67
2018-01-23T10:21:31.206Z,27.83
2018-01-23T10:23:58.023Z,31.10
2018-01-23T10:26:24.750Z,29.70
2018-01-23T10:28:51.503Z,33.50
2018-01-23T10:31:18.224Z,26.97
2018-01-23T10:33:44.956Z,27.40
2018-01-23T10:36:11.699Z,28.50
2018-01-23T10:41:22.170Z,24.17
2018-01-23T10:43:48.915Z,24.77
2018-01-23T10:46:15.661Z,25.20
2018-01-23T10:48:42.383Z,23.83
2018-01-23T10:51:09.164Z,25.43
2018-01-23T10:53:35.911Z,23.03
2018-01-23T10:56:02.732Z,24.83
2018-01-23T10:58:29.470Z,23.53
2018-01-23T11:01:01.966Z,24.70
2018-01-23T11:03:28.714Z,39.67
2018-01-23T11:05:55.471Z,24.43
2018-01-23T11:08:22.194Z,23.80
2018-01-23T11:10:48.925Z,25.37
2018-01-23T11:13:15.654Z,37.87
2018-01-23T11:15:42.415Z,39.30
2018-01-23T11:18:09.154Z,33.30
2018-01-23T11:20:35.933Z,35.20
2018-01-23T11:23:02.672Z,30.47
2018-01-23T11:25:29.415Z,28.90
2018-01-23T11:27:56.155Z,29.10
2018-01-23T11:30:22.876Z,32.43
2018-01-23T11:32:49.600Z,29.70
2018-01-23T11:35:16.341Z,27.43
2018-01-23T11:37:43.096Z,31.73
2018-01-23T11:40:09.805Z,28.73
2018-01-23T11:42:36.552Z,38.83
2018-01-23T11:45:03.305Z,32.47
2018-01-23T11:47:30.043Z,29.90
2018-01-23T11:49:56.798Z,36.17
2018-01-23T11:52:23.523Z,37.30
2018-01-23T11:54:50.249Z,31.93
2018-01-23T11:57:16.986Z,35.30
2018-01-23T11:59:43.725Z,30.67
2018-01-23T12:02:10.596Z,27.93
2018-01-23T12:04:37.335Z,29.03
2018-01-23T12:07:04.101Z,29.77
2018-01-23T12:09:30.821Z,32.00
2018-01-23T12:11:57.569Z,33.40
2018-01-23T12:14:24.311Z,31.27
2018-01-23T12:16:51.043Z,31.63
2018-01-23T12:19:17.833Z,35.13
2018-01-23T12:21:44.548Z,37.97
2018-01-23T12:24:11.272Z,32.23
2018-01-23T12:26:38.017Z,31.07
2018-01-23T12:29:04.744Z,27.67
2018-01-23T12:31:31.494Z,28.90
2018-01-23T12:33:58.275Z,28.43
2018-01-23T12:36:25.065Z,29.23
2018-01-23T12:38:51.804Z,38.70
2018-01-23T12:41:18.564Z,33.00
2018-01-23T12:43:45.290Z,30.50
2018-01-23T12:46:12.008Z,29.87
2018-01-23T12:48:38.767Z,33.90
2018-01-23T12:51:05.501Z,31.30
2018-01-23T12:53:32.233Z,31.40
2018-01-23T12:55:58.994Z,28.03
2018-01-23T12:58:25.819Z,29.27
2018-01-23T13:00:52.473Z,32.37
2018-01-23T13:03:19.226Z,30.33
2018-01-23T13:05:45.954Z,29.27
2018-01-23T13:08:12.694Z,28.20
2018-01-23T13:10:39.425Z,27.93
2018-01-23T13:13:06.142Z,26.33
2018-01-23T13:15:32.851Z,26.93
2018-01-23T13:17:59.567Z,23.33
2018-01-23T13:20:26.286Z,31.73
2018-01-23T13:22:53.041Z,24.90
2018-01-23T13:25:19.807Z,23.40
2018-01-23T13:27:46.522Z,26.37
2018-01-23T13:30:13.235Z,24.07
2018-01-23T13:32:39.949Z,33.47
2018-01-23T13:35:06.677Z,21.90
2018-01-23T13:37:33.394Z,28.23
2018-01-23T13:40:00.109Z,27.37
2018-01-23T13:42:26.861Z,30.87
2018-01-23T13:44:53.582Z,28.17
2018-01-23T13:47:20.364Z,23.83
2018-01-23T13:49:47.082Z,22.10
2018-01-23T13:52:13.830Z,25.40
2018-01-23T13:54:40.556Z,22.87
2018-01-23T13:57:07.272Z,23.50
2018-01-23T13:59:34.019Z,25.17
2018-01-23T14:02:00.779Z,22.30
2018-01-23T14:04:27.504Z,24.00
2018-01-23T14:06:54.686Z,23.10
2018-01-23T14:09:21.512Z,24.43
2018-01-23T14:11:48.245Z,24.30
2018-01-23T14:14:15.172Z,23.60
2018-01-23T14:16:41.921Z,21.00
2018-01-23T14:19:08.647Z,21.17
2018-01-23T14:21:35.382Z,23.17
2018-01-23T14:24:02.184Z,20.57
2018-01-23T14:26:28.894Z,23.40
2018-01-23T14:28:55.625Z,22.70
2018-01-23T14:31:22.504Z,23.37
2018-01-23T14:33:49.258Z,26.93
2018-01-23T14:36:15.974Z,26.27
2018-01-23T14:38:42.745Z,29.57
2018-01-23T14:41:09.458Z,27.17
2018-01-23T14:43:36.175Z,32.80
2018-01-23T14:46:02.926Z,21.17
2018-01-23T14:48:29.659Z,31.23
2018-01-23T14:50:56.396Z,21.20
2018-01-23T14:53:23.135Z,25.80
2018-01-23T14:55:49.863Z,28.63
2018-01-23T14:58:17.414Z,24.77
2018-01-23T15:00:44.218Z,25.57
2018-01-23T15:03:10.979Z,27.80
2018-01-23T15:05:37.792Z,30.43
2018-01-23T15:08:04.552Z,30.13
2018-01-23T15:10:31.314Z,24.87
2018-01-23T15:12:58.041Z,23.47
2018-01-23T15:15:24.789Z,23.70
2018-01-23T15:17:51.505Z,20.10
2018-01-23T15:20:18.286Z,24.67
2018-01-23T15:22:45.459Z,23.43
2018-01-23T15:25:12.181Z,24.50
2018-01-23T15:27:38.939Z,24.20
2018-01-23T15:30:05.690Z,24.03
2018-01-23T15:32:32.414Z,37.53
2018-01-23T15:34:59.217Z,26.90
2018-01-23T15:37:25.957Z,24.30
2018-01-23T15:39:52.681Z,22.77
2018-01-23T15:42:19.408Z,22.90
2018-01-23T15:44:46.166Z,21.40
2018-01-23T15:47:12.882Z,23.13
2018-01-23T15:49:39.638Z,22.87
2018-01-23T15:52:06.371Z,24.43
2018-01-23T15:54:33.091Z,28.17
2018-01-23T15:56:59.868Z,23.63
2018-01-23T15:59:26.601Z,23.30
2018-01-23T16:01:53.354Z,26.90
2018-01-23T16:04:20.077Z,23.57
2018-01-23T16:06:46.826Z,23.90
2018-01-23T16:09:13.566Z,23.00
2018-01-23T16:11:40.302Z,25.00
2018-01-23T16:14:07.141Z,22.20
2018-01-23T16:16:33.863Z,22.53
2018-01-23T16:19:00.658Z,25.07
2018-01-23T16:21:27.398Z,24.50
2018-01-23T16:23:54.466Z,24.27
2018-01-23T16:26:21.239Z,26.90
2018-01-23T16:28:47.958Z,21.63
2018-01-23T16:31:14.741Z,21.47
2018-01-23T16:33:41.470Z,23.37
2018-01-23T16:36:08.221Z,18.47
2018-01-23T16:38:34.937Z,22.07
2018-01-23T16:41:01.668Z,29.83
2018-01-23T16:43:28.425Z,22.50
2018-01-23T16:45:55.158Z,21.30
2018-01-23T16:48:21.958Z,17.17
2018-01-23T16:50:48.665Z,18.33
2018-01-23T16:53:15.397Z,22.27
2018-01-23T16:55:42.108Z,20.17
2018-01-23T16:58:08.841Z,22.23
2018-01-23T17:00:35.569Z,19.67
2018-01-23T17:03:02.294Z,22.30
2018-01-23T17:05:29.023Z,22.50
2018-01-23T17:07:55.749Z,23.52
2018-01-23T17:10:22.485Z,27.93
2018-01-23T17:12:49.236Z,19.20
2018-01-23T17:15:15.978Z,17.40
2018-01-23T17:17:42.703Z,21.53
2018-01-23T17:20:09.437Z,18.90
2018-01-23T17:22:36.164Z,29.77
2018-01-23T17:25:02.890Z,20.20
2018-01-23T17:27:29.704Z,22.03
2018-01-23T17:29:56.487Z,22.63
2018-01-23T17:32:23.209Z,19.93
2018-01-23T17:34:49.966Z,19.97
2018-01-23T17:37:16.688Z,24.93
2018-01-23T17:39:43.441Z,29.67
2018-01-23T17:42:10.193Z,32.30
2018-01-23T17:44:36.970Z,27.57
2018-01-23T17:47:03.706Z,28.13
2018-01-23T17:49:30.546Z,24.00
2018-01-23T17:51:57.296Z,21.63
2018-01-23T17:54:24.033Z,31.30
2018-01-23T17:56:50.768Z,21.77
2018-01-23T17:59:17.530Z,21.53
2018-01-23T18:01:44.306Z,18.33
2018-01-23T18:04:11.086Z,20.23
2018-01-23T18:06:37.828Z,21.67
2018-01-23T18:09:04.585Z,22.37
2018-01-23T18:11:31.347Z,17.17
2018-01-23T18:13:58.075Z,18.67
2018-01-23T18:16:24.795Z,18.47
2018-01-23T18:18:51.545Z,23.90
2018-01-23T18:21:18.289Z,17.20
2018-01-23T18:23:45.060Z,20.43
2018-01-23T18:26:11.840Z,20.90
2018-01-23T18:28:38.614Z,20.83
2018-01-23T18:31:05.390Z,25.27
2018-01-23T18:33:32.168Z,27.43
2018-01-23T18:35:58.895Z,22.90
2018-01-23T18:38:25.638Z,27.10
2018-01-23T18:40:52.378Z,33.63
2018-01-23T18:43:19.098Z,25.83
2018-01-23T18:45:45.862Z,22.97
2018-01-23T18:48:12.606Z,19.93
2018-01-23T18:50:39.325Z,22.70
2018-01-23T18:53:06.078Z,22.43
2018-01-23T18:55:32.817Z,23.90
2018-01-23T18:57:59.544Z,18.40
2018-01-23T19:00:26.293Z,19.80
2018-01-23T19:02:53.049Z,20.83
2018-01-23T19:05:19.786Z,29.90
2018-01-23T19:07:46.511Z,20.97
2018-01-23T19:10:13.245Z,22.70
2018-01-23T19:12:39.957Z,18.30
2018-01-23T19:15:06.693Z,21.37
2018-01-23T19:17:33.445Z,20.60
2018-01-23T19:20:00.166Z,20.23
2018-01-23T19:22:26.904Z,16.87
2018-01-23T19:24:53.647Z,19.60
2018-01-23T19:27:20.376Z,21.27
2018-01-23T19:29:47.105Z,21.67
2018-01-23T19:32:13.985Z,18.53
2018-01-23T19:34:40.853Z,22.20
2018-01-23T19:37:07.591Z,20.10
2018-01-23T19:39:34.389Z,23.83
2018-01-23T19:42:01.112Z,21.40
2018-01-23T19:44:28.112Z,20.90
2018-01-23T19:46:55.178Z,21.13
2018-01-23T19:49:22.203Z,21.20
2018-01-23T19:51:48.995Z,27.03
2018-01-23T19:54:16.009Z,18.93
2018-01-23T19:56:43.664Z,19.30
2018-01-23T19:59:10.654Z,16.27
2018-01-23T20:01:37.688Z,24.20
2018-01-23T20:04:04.448Z,23.70
2018-01-23T20:06:31.181Z,22.60
2018-01-23T20:08:58.067Z,17.50
2018-01-23T20:11:24.802Z,15.13
2018-01-23T20:13:51.792Z,18.07
2018-01-23T20:16:18.628Z,13.47
2018-01-23T20:18:45.363Z,12.73
2018-01-23T20:21:12.338Z,15.20
2018-01-23T20:23:39.404Z,17.07
2018-01-23T20:26:06.432Z,16.90
2018-01-23T20:28:33.207Z,18.13
2018-01-23T20:31:00.186Z,18.60
2018-01-23T20:33:26.955Z,16.17
2018-01-23T20:35:53.693Z,21.00
2018-01-23T20:38:20.457Z,25.30
2018-01-23T20:40:47.222Z,17.37
2018-01-23T20:43:13.957Z,24.83
2018-01-23T20:45:40.698Z,21.10
2018-01-23T20:48:07.439Z,21.23
2018-01-23T20:50:34.279Z,21.27
2018-01-23T20:53:01.034Z,19.27
2018-01-23T20:55:27.809Z,24.30
2018-01-23T20:57:54.543Z,20.30
2018-01-23T21:00:21.302Z,18.83
2018-01-23T21:02:48.032Z,20.10
2018-01-23T21:05:14.786Z,19.60
2018-01-23T21:07:41.550Z,25.83
2018-01-23T21:10:08.306Z,21.27
2018-01-23T21:12:35.027Z,20.40
2018-01-23T21:15:01.793Z,26.43
2018-01-23T21:17:28.556Z,23.80
2018-01-23T21:19:55.321Z,21.43
2018-01-23T21:22:22.056Z,22.80
2018-01-23T21:24:48.782Z,23.33
2018-01-23T21:27:15.549Z,26.77
2018-01-23T21:29:42.309Z,21.17
2018-01-23T21:32:09.035Z,22.23
2018-01-23T21:34:35.773Z,26.90
2018-01-23T21:37:02.529Z,23.00
2018-01-23T21:39:29.279Z,20.63
2018-01-23T21:41:56.037Z,23.13
2018-01-23T21:44:22.794Z,26.17
2018-01-23T21:46:49.515Z,22.43
2018-01-23T21:49:16.282Z,21.43
2018-01-23T21:51:43.038Z,22.67
2018-01-23T21:54:09.761Z,24.30
2018-01-23T21:56:36.602Z,26.17
2018-01-23T21:59:03.403Z,21.00
2018-01-23T22:01:31.023Z,25.77
2018-01-23T22:03:57.742Z,25.47
2018-01-23T22:06:24.517Z,23.43
2018-01-23T22:08:51.264Z,26.53
2018-01-23T22:11:18.020Z,27.80
2018-01-23T22:13:44.802Z,23.93
2018-01-23T22:16:11.541Z,23.00
2018-01-23T22:18:38.285Z,30.80
2018-01-23T22:21:05.018Z,22.23
2018-01-23T22:23:31.766Z,24.33
2018-01-23T22:25:58.495Z,22.60
2018-01-23T22:28:25.257Z,22.63
2018-01-23T22:30:51.975Z,23.63
2018-01-23T22:33:18.689Z,26.60
2018-01-23T22:35:45.414Z,26.50
2018-01-23T22:38:12.136Z,25.67
2018-01-23T22:40:38.902Z,23.38
2018-01-23T22:43:05.626Z,24.37
2018-01-23T22:45:32.353Z,23.87
2018-01-23T22:47:59.136Z,21.73
2018-01-23T22:50:25.865Z,27.53
2018-01-23T22:52:52.578Z,21.87
2018-01-23T22:55:19.316Z,24.45
2018-01-23T22:57:46.042Z,22.10
2018-01-23T23:00:12.775Z,22.90
2018-01-23T23:02:39.526Z,21.63
2018-01-23T23:05:06.284Z,23.35
2018-01-23T23:07:33.006Z,25.50
2018-01-23T23:09:59.734Z,22.75
2018-01-23T23:12:26.514Z,27.05
2018-01-23T23:14:53.246Z,23.25
2018-01-23T23:17:19.983Z,24.93
2018-01-23T23:19:46.717Z,23.30
2018-01-23T23:22:13.426Z,26.37
2018-01-23T23:24:40.155Z,26.48
2018-01-23T23:27:07.790Z,26.37
2018-01-23T23:29:34.511Z,30.37
2018-01-23T23:32:01.244Z,23.05
2018-01-23T23:34:27.984Z,26.98
2018-01-23T23:36:54.736Z,21.48
2018-01-23T23:39:21.452Z,22.80
2018-01-23T23:41:48.189Z,28.23
2018-01-23T23:44:14.916Z,25.52
2018-01-23T23:46:41.663Z,29.57
2018-01-23T23:49:08.408Z,25.10
2018-01-23T23:51:35.143Z,25.52
2018-01-23T23:54:01.867Z,26.37
2018-01-23T23:56:28.598Z,24.17
2018-01-23T23:58:55.329Z,29.73
